sensor_id;sensor_type;location;lat;lon;timestamp;pressure;altitude;pressure_sealevel;temperature;humidity
27032;BME280;14580;52.918;9.214;2023-12-20T18:11:19;100527.72;;;7.14;100.00
27032;BME280;14580;52.918;9.214;2023-12-20T18:13:45;100531.59;;;7.06;100.00
27032;BME280;14580;52.918;9.214;2023-12-20T18:16:11;100529.03;;;7.06;100.00
27032;BME280;14580;52.918;9.214;2023-12-20T18:18:37;100522.44;;;7.02;100.00
27032;BME280;14580;52.918;9.214;2023-12-20T18:21:03;100526.75;;;7.01;100.00
27032;BME280;14580;52.918;9.214;2023-12-20T18:23:29;100528.41;;;7.02;100.00
27032;BME280;14580;52.918;9.214;2023-12-20T18:25:55;100519.59;;;7.06;100.00
27032;BME280;14580;52.918;9.214;2023-12-20T18:28:22;100516.47;;;7.01;100.00
27032;BME280;14580;52.918;9.214;2023-12-20T18:30:48;100510.59;;;6.99;100.00
27032;BME280;14580;52.918;9.214;2023-12-20T18:33:15;100501.91;;;7.02;100.00
27032;BME280;14580;52.918;9.214;2023-12-20T18:35:40;100495.47;;;6.95;100.00
27032;BME280;14580;52.918;9.214;2023-12-20T18:38:12;100498.63;;;7.00;100.00
27032;BME280;14580;52.918;9.214;2023-12-20T18:40:43;100498.88;;;6.95;100.00
27032;BME280;14580;52.918;9.214;2023-12-20T18:43:14;100493.66;;;6.97;100.00
27032;BME280;14580;52.918;9.214;2023-12-20T18:45:40;100487.22;;;6.90;100.00
27032;BME280;14580;52.918;9.214;2023-12-20T18:48:06;100473.63;;;6.87;100.00
27032;BME280;14580;52.918;9.214;2023-12-20T18:50:32;100467.25;;;6.95;100.00
27032;BME280;14580;52.918;9.214;2023-12-20T18:52:58;100459.00;;;6.90;100.00
27032;BME280;14580;52.918;9.214;2023-12-20T18:55:24;100455.31;;;6.94;100.00
27032;BME280;14580;52.918;9.214;2023-12-20T18:57:50;100447.78;;;6.91;100.00
27032;BME280;14580;52.918;9.214;2023-12-20T19:00:16;100440.81;;;6.93;100.00
27032;BME280;14580;52.918;9.214;2023-12-20T19:02:44;100442.66;;;6.91;100.00
27032;BME280;14580;52.918;9.214;2023-12-20T19:05:10;100441.94;;;6.88;100.00
27032;BME280;14580;52.918;9.214;2023-12-20T19:07:36;100434.56;;;6.82;100.00
27032;BME280;14580;52.918;9.214;2023-12-20T19:10:03;100430.53;;;6.78;100.00
27032;BME280;14580;52.918;9.214;2023-12-20T19:12:29;100424.13;;;6.85;100.00
27032;BME280;14580;52.918;9.214;2023-12-20T19:14:54;100427.81;;;6.81;100.00
27032;BME280;14580;52.918;9.214;2023-12-20T19:17:20;100413.09;;;6.69;100.00
27032;BME280;14580;52.918;9.214;2023-12-20T19:19:46;100412.75;;;6.75;100.00
27032;BME280;14580;52.918;9.214;2023-12-20T19:22:12;100399.19;;;6.73;100.00
27032;BME280;14580;52.918;9.214;2023-12-20T19:24:38;100401.88;;;6.86;100.00
27032;BME280;14580;52.918;9.214;2023-12-20T19:27:04;100387.09;;;6.75;100.00
27032;BME280;14580;52.918;9.214;2023-12-20T19:29:30;100384.34;;;6.78;100.00
27032;BME280;14580;52.918;9.214;2023-12-20T19:31:55;100389.00;;;6.72;100.00
27032;BME280;14580;52.918;9.214;2023-12-20T19:34:21;100365.09;;;6.71;100.00
27032;BME280;14580;52.918;9.214;2023-12-20T19:36:48;100368.56;;;6.70;100.00
27032;BME280;14580;52.918;9.214;2023-12-20T19:39:13;100357.97;;;6.76;100.00
27032;BME280;14580;52.918;9.214;2023-12-20T19:41:39;100350.06;;;6.65;100.00
27032;BME280;14580;52.918;9.214;2023-12-20T19:44:05;100347.88;;;6.73;100.00
27032;BME280;14580;52.918;9.214;2023-12-20T19:46:32;100340.91;;;6.75;100.00
27032;BME280;14580;52.918;9.214;2023-12-20T19:48:58;100327.34;;;6.73;100.00
27032;BME280;14580;52.918;9.214;2023-12-20T19:51:23;100320.88;;;6.82;100.00
27032;BME280;14580;52.918;9.214;2023-12-20T19:53:51;100307.56;;;6.75;100.00
27032;BME280;14580;52.918;9.214;2023-12-20T19:56:17;100305.66;;;6.79;100.00
27032;BME280;14580;52.918;9.214;2023-12-20T19:58:42;100291.81;;;6.81;100.00
27032;BME280;14580;52.918;9.214;2023-12-20T20:01:08;100276.16;;;6.86;100.00
27032;BME280;14580;52.918;9.214;2023-12-20T20:03:34;100261.41;;;6.90;100.00
27032;BME280;14580;52.918;9.214;2023-12-20T20:06:00;100265.88;;;6.86;100.00
27032;BME280;14580;52.918;9.214;2023-12-20T20:08:25;100236.28;;;6.80;100.00
27032;BME280;14580;52.918;9.214;2023-12-20T20:10:51;100230.69;;;6.88;100.00
27032;BME280;14580;52.918;9.214;2023-12-20T20:13:18;100224.94;;;6.84;100.00
27032;BME280;14580;52.918;9.214;2023-12-20T20:15:44;100208.78;;;6.82;100.00
27032;BME280;14580;52.918;9.214;2023-12-20T20:18:09;100201.84;;;6.84;100.00
27032;BME280;14580;52.918;9.214;2023-12-20T20:20:36;100197.03;;;6.93;100.00
27032;BME280;14580;52.918;9.214;2023-12-20T20:23:02;100188.53;;;6.92;100.00
27032;BME280;14580;52.918;9.214;2023-12-20T20:25:30;100178.09;;;6.95;100.00
27032;BME280;14580;52.918;9.214;2023-12-20T20:27:56;100173.69;;;6.97;100.00
27032;BME280;14580;52.918;9.214;2023-12-20T20:30:22;100175.97;;;7.02;100.00
27032;BME280;14580;52.918;9.214;2023-12-20T20:32:48;100172.38;;;7.04;100.00
27032;BME280;14580;52.918;9.214;2023-12-20T20:35:14;100167.78;;;7.09;100.00
27032;BME280;14580;52.918;9.214;2023-12-20T20:37:40;100157.41;;;7.11;100.00
27032;BME280;14580;52.918;9.214;2023-12-20T20:40:07;100150.28;;;7.16;100.00
27032;BME280;14580;52.918;9.214;2023-12-20T20:42:33;100149.88;;;7.22;100.00
27032;BME280;14580;52.918;9.214;2023-12-20T20:44:58;100154.13;;;7.35;100.00
27032;BME280;14580;52.918;9.214;2023-12-20T20:47:24;100146.13;;;7.40;100.00
27032;BME280;14580;52.918;9.214;2023-12-20T20:49:50;100126.75;;;7.48;100.00
27032;BME280;14580;52.918;9.214;2023-12-20T20:52:16;100119.97;;;7.60;100.00
27032;BME280;14580;52.918;9.214;2023-12-20T20:54:42;100124.09;;;7.63;100.00
27032;BME280;14580;52.918;9.214;2023-12-20T20:57:08;100119.28;;;7.71;100.00
27032;BME280;14580;52.918;9.214;2023-12-20T20:59:35;100111.88;;;7.79;100.00
27032;BME280;14580;52.918;9.214;2023-12-20T21:02:01;100103.59;;;7.88;100.00
27032;BME280;14580;52.918;9.214;2023-12-20T21:04:28;100101.94;;;7.99;100.00
27032;BME280;14580;52.918;9.214;2023-12-20T21:06:55;100092.41;;;8.01;100.00
27032;BME280;14580;52.918;9.214;2023-12-20T21:09:21;100111.81;;;8.05;100.00
27032;BME280;14580;52.918;9.214;2023-12-20T21:11:47;100090.84;;;8.11;100.00
27032;BME280;14580;52.918;9.214;2023-12-20T21:14:13;100083.63;;;8.17;100.00
27032;BME280;14580;52.918;9.214;2023-12-20T21:16:40;100079.91;;;8.21;100.00
27032;BME280;14580;52.918;9.214;2023-12-20T21:19:06;100075.59;;;8.21;100.00
27032;BME280;14580;52.918;9.214;2023-12-20T21:21:31;100070.09;;;8.27;100.00
27032;BME280;14580;52.918;9.214;2023-12-20T21:23:58;100061.22;;;8.31;100.00
27032;BME280;14580;52.918;9.214;2023-12-20T21:26:23;100061.94;;;8.33;100.00
27032;BME280;14580;52.918;9.214;2023-12-20T21:28:49;100055.03;;;8.34;100.00
27032;BME280;14580;52.918;9.214;2023-12-20T21:31:15;100058.31;;;8.36;100.00
27032;BME280;14580;52.918;9.214;2023-12-20T21:33:41;100044.22;;;8.41;100.00
27032;BME280;14580;52.918;9.214;2023-12-20T21:36:08;100052.75;;;8.42;100.00
27032;BME280;14580;52.918;9.214;2023-12-20T21:38:36;100039.69;;;8.45;100.00
27032;BME280;14580;52.918;9.214;2023-12-20T21:41:02;100037.41;;;8.53;100.00
27032;BME280;14580;52.918;9.214;2023-12-20T21:43:30;100034.72;;;8.54;100.00
27032;BME280;14580;52.918;9.214;2023-12-20T21:45:55;100038.81;;;8.57;100.00
27032;BME280;14580;52.918;9.214;2023-12-20T21:48:22;100029.47;;;8.56;100.00
27032;BME280;14580;52.918;9.214;2023-12-20T21:50:51;100034.19;;;8.62;100.00
27032;BME280;14580;52.918;9.214;2023-12-20T21:53:16;100038.41;;;8.63;100.00
27032;BME280;14580;52.918;9.214;2023-12-20T21:55:42;100039.31;;;8.62;100.00
27032;BME280;14580;52.918;9.214;2023-12-20T21:58:08;100039.72;;;8.68;100.00
27032;BME280;14580;52.918;9.214;2023-12-20T22:00:35;100029.66;;;8.65;100.00
27032;BME280;14580;52.918;9.214;2023-12-20T22:03:01;100023.03;;;8.74;100.00
27032;BME280;14580;52.918;9.214;2023-12-20T22:05:29;100035.16;;;8.72;100.00
27032;BME280;14580;52.918;9.214;2023-12-20T22:07:58;100036.00;;;8.72;100.00
27032;BME280;14580;52.918;9.214;2023-12-20T22:10:25;100026.53;;;8.73;100.00
27032;BME280;14580;52.918;9.214;2023-12-20T22:12:50;100018.59;;;8.76;100.00
27032;BME280;14580;52.918;9.214;2023-12-20T22:15:16;100026.91;;;8.80;100.00
27032;BME280;14580;52.918;9.214;2023-12-20T22:17:42;100004.81;;;8.88;100.00
27032;BME280;14580;52.918;9.214;2023-12-20T22:20:09;100008.31;;;8.87;100.00
27032;BME280;14580;52.918;9.214;2023-12-20T22:22:35;100009.75;;;8.91;100.00
27032;BME280;14580;52.918;9.214;2023-12-20T22:25:00;100004.41;;;8.94;100.00
27032;BME280;14580;52.918;9.214;2023-12-20T22:27:26;99997.59;;;8.93;100.00
27032;BME280;14580;52.918;9.214;2023-12-20T22:29:52;100000.88;;;8.95;100.00
27032;BME280;14580;52.918;9.214;2023-12-20T22:32:19;100011.78;;;8.99;100.00
27032;BME280;14580;52.918;9.214;2023-12-20T22:34:45;100007.47;;;8.99;100.00
27032;BME280;14580;52.918;9.214;2023-12-20T22:37:10;100003.94;;;9.00;100.00
27032;BME280;14580;52.918;9.214;2023-12-20T22:39:36;99990.34;;;8.98;100.00
27032;BME280;14580;52.918;9.214;2023-12-20T22:42:05;99998.78;;;9.00;100.00
27032;BME280;14580;52.918;9.214;2023-12-20T22:44:33;99980.75;;;9.00;100.00
27032;BME280;14580;52.918;9.214;2023-12-20T22:46:59;99985.25;;;9.09;100.00
27032;BME280;14580;52.918;9.214;2023-12-20T22:49:25;99987.00;;;9.09;100.00
27032;BME280;14580;52.918;9.214;2023-12-20T22:51:50;99986.78;;;9.12;100.00
27032;BME280;14580;52.918;9.214;2023-12-20T22:54:16;99982.69;;;9.09;100.00
27032;BME280;14580;52.918;9.214;2023-12-20T22:56:42;99981.84;;;9.09;100.00
27032;BME280;14580;52.918;9.214;2023-12-20T22:59:09;99984.06;;;9.13;100.00
27032;BME280;14580;52.918;9.214;2023-12-20T23:01:38;99964.44;;;9.12;100.00
27032;BME280;14580;52.918;9.214;2023-12-20T23:04:04;99956.00;;;9.21;100.00
27032;BME280;14580;52.918;9.214;2023-12-20T23:06:30;99962.81;;;9.22;100.00
27032;BME280;14580;52.918;9.214;2023-12-20T23:08:56;99955.09;;;9.22;100.00
27032;BME280;14580;52.918;9.214;2023-12-20T23:11:22;99957.22;;;9.28;100.00
27032;BME280;14580;52.918;9.214;2023-12-20T23:13:48;99948.19;;;9.23;100.00
27032;BME280;14580;52.918;9.214;2023-12-20T23:16:13;99944.34;;;9.28;100.00
27032;BME280;14580;52.918;9.214;2023-12-20T23:18:39;99944.22;;;9.30;100.00
27032;BME280;14580;52.918;9.214;2023-12-20T23:21:05;99936.34;;;9.31;100.00
27032;BME280;14580;52.918;9.214;2023-12-20T23:23:31;99938.94;;;9.31;100.00
27032;BME280;14580;52.918;9.214;2023-12-20T23:25:56;99936.81;;;9.36;100.00
27032;BME280;14580;52.918;9.214;2023-12-20T23:28:23;99934.25;;;9.36;100.00
27032;BME280;14580;52.918;9.214;2023-12-20T23:30:49;99937.78;;;9.35;100.00
27032;BME280;14580;52.918;9.214;2023-12-20T23:33:15;99936.13;;;9.34;100.00
27032;BME280;14580;52.918;9.214;2023-12-20T23:35:41;99924.69;;;9.39;100.00
27032;BME280;14580;52.918;9.214;2023-12-20T23:38:06;99935.78;;;9.39;100.00
27032;BME280;14580;52.918;9.214;2023-12-20T23:40:32;99930.75;;;9.38;100.00
27032;BME280;14580;52.918;9.214;2023-12-20T23:42:58;99935.91;;;9.38;100.00
27032;BME280;14580;52.918;9.214;2023-12-20T23:45:24;99933.94;;;9.41;100.00
27032;BME280;14580;52.918;9.214;2023-12-20T23:47:49;99922.66;;;9.42;100.00
27032;BME280;14580;52.918;9.214;2023-12-20T23:50:16;99936.84;;;9.48;100.00
27032;BME280;14580;52.918;9.214;2023-12-20T23:52:42;99931.59;;;9.49;100.00
27032;BME280;14580;52.918;9.214;2023-12-20T23:55:08;99931.69;;;9.48;100.00
27032;BME280;14580;52.918;9.214;2023-12-20T23:57:36;99930.06;;;9.47;100.00
